sensor_id;sensor_type;location;lat;lon;timestamp;P1;durP1;ratioP1;P2;durP2;ratioP2
13611;SDS011;6877;51.436;6.774;2023-05-02T00:00:32;42.50;;;25.80;;
13611;SDS011;6877;51.436;6.774;2023-05-02T00:02:59;43.15;;;25.67;;
13611;SDS011;6877;51.436;6.774;2023-05-02T00:05:31;50.55;;;26.95;;
13611;SDS011;6877;51.436;6.774;2023-05-02T00:07:57;43.47;;;27.15;;
13611;SDS011;6877;51.436;6.774;2023-05-02T00:10:24;46.25;;;29.13;;
13611;SDS011;6877;51.436;6.774;2023-05-02T00:12:50;49.42;;;29.88;;
13611;SDS011;6877;51.436;6.774;2023-05-02T00:15:17;50.28;;;27.85;;
13611;SDS011;6877;51.436;6.774;2023-05-02T00:17:43;46.72;;;27.15;;
13611;SDS011;6877;51.436;6.774;2023-05-02T00:20:10;48.40;;;26.70;;
13611;SDS011;6877;51.436;6.774;2023-05-02T00:22:37;44.90;;;27.13;;
13611;SDS011;6877;51.436;6.774;2023-05-02T00:25:04;45.45;;;28.35;;
13611;SDS011;6877;51.436;6.774;2023-05-02T00:27:31;48.95;;;27.17;;
13611;SDS011;6877;51.436;6.774;2023-05-02T00:29:58;48.53;;;28.30;;
13611;SDS011;6877;51.436;6.774;2023-05-02T00:32:25;50.05;;;29.42;;
13611;SDS011;6877;51.436;6.774;2023-05-02T00:34:52;51.30;;;28.90;;
13611;SDS011;6877;51.436;6.774;2023-05-02T00:37:19;46.17;;;28.00;;
13611;SDS011;6877;51.436;6.774;2023-05-02T00:39:45;51.35;;;27.88;;
13611;SDS011;6877;51.436;6.774;2023-05-02T00:42:12;50.63;;;30.02;;
13611;SDS011;6877;51.436;6.774;2023-05-02T00:44:38;55.00;;;30.88;;
13611;SDS011;6877;51.436;6.774;2023-05-02T00:47:05;46.60;;;28.20;;
13611;SDS011;6877;51.436;6.774;2023-05-02T00:49:32;51.50;;;30.50;;
13611;SDS011;6877;51.436;6.774;2023-05-02T00:52:02;54.78;;;31.77;;
13611;SDS011;6877;51.436;6.774;2023-05-02T00:54:29;54.78;;;31.73;;
13611;SDS011;6877;51.436;6.774;2023-05-02T00:56:56;51.83;;;29.67;;
13611;SDS011;6877;51.436;6.774;2023-05-02T00:59:22;52.15;;;27.77;;
13611;SDS011;6877;51.436;6.774;2023-05-02T01:05:01;54.92;;;32.08;;
13611;SDS011;6877;51.436;6.774;2023-05-02T01:10:30;63.33;;;33.78;;
13611;SDS011;6877;51.436;6.774;2023-05-02T01:13:23;62.05;;;33.65;;
13611;SDS011;6877;51.436;6.774;2023-05-02T01:16:01;62.45;;;32.42;;
13611;SDS011;6877;51.436;6.774;2023-05-02T01:18:29;54.60;;;31.27;;
13611;SDS011;6877;51.436;6.774;2023-05-02T01:21:02;63.45;;;31.90;;
13611;SDS011;6877;51.436;6.774;2023-05-02T01:23:45;62.08;;;31.92;;
13611;SDS011;6877;51.436;6.774;2023-05-02T01:28:57;59.63;;;31.27;;
13611;SDS011;6877;51.436;6.774;2023-05-02T01:31:25;55.00;;;30.15;;
13611;SDS011;6877;51.436;6.774;2023-05-02T01:33:55;51.97;;;29.27;;
13611;SDS011;6877;51.436;6.774;2023-05-02T01:36:24;47.75;;;26.33;;
13611;SDS011;6877;51.436;6.774;2023-05-02T01:38:57;47.33;;;26.00;;
13611;SDS011;6877;51.436;6.774;2023-05-02T01:41:26;55.92;;;27.98;;
13611;SDS011;6877;51.436;6.774;2023-05-02T01:43:56;45.85;;;26.25;;
13611;SDS011;6877;51.436;6.774;2023-05-02T01:46:25;55.00;;;27.63;;
13611;SDS011;6877;51.436;6.774;2023-05-02T01:48:56;52.10;;;27.15;;
13611;SDS011;6877;51.436;6.774;2023-05-02T01:51:27;53.42;;;27.38;;
13611;SDS011;6877;51.436;6.774;2023-05-02T01:54:00;50.22;;;26.00;;
13611;SDS011;6877;51.436;6.774;2023-05-02T01:56:31;48.95;;;25.30;;
13611;SDS011;6877;51.436;6.774;2023-05-02T01:59:01;43.83;;;24.35;;
13611;SDS011;6877;51.436;6.774;2023-05-02T02:01:35;47.40;;;24.88;;
13611;SDS011;6877;51.436;6.774;2023-05-02T02:04:03;52.03;;;28.40;;
13611;SDS011;6877;51.436;6.774;2023-05-02T02:06:32;50.65;;;25.35;;
13611;SDS011;6877;51.436;6.774;2023-05-02T02:08:58;49.85;;;25.25;;
13611;SDS011;6877;51.436;6.774;2023-05-02T02:11:26;54.90;;;26.65;;
13611;SDS011;6877;51.436;6.774;2023-05-02T02:13:59;43.17;;;22.90;;
13611;SDS011;6877;51.436;6.774;2023-05-02T02:16:32;48.00;;;24.35;;
13611;SDS011;6877;51.436;6.774;2023-05-02T02:19:06;52.63;;;23.67;;
13611;SDS011;6877;51.436;6.774;2023-05-02T02:21:35;43.28;;;22.70;;
13611;SDS011;6877;51.436;6.774;2023-05-02T02:24:04;38.55;;;22.65;;
13611;SDS011;6877;51.436;6.774;2023-05-02T02:26:32;43.85;;;23.73;;
13611;SDS011;6877;51.436;6.774;2023-05-02T02:28:59;41.00;;;21.45;;
13611;SDS011;6877;51.436;6.774;2023-05-02T02:31:33;39.22;;;19.10;;
13611;SDS011;6877;51.436;6.774;2023-05-02T02:34:01;40.20;;;21.48;;
13611;SDS011;6877;51.436;6.774;2023-05-02T02:36:32;39.80;;;20.08;;
13611;SDS011;6877;51.436;6.774;2023-05-02T02:47:57;40.47;;;19.65;;
13611;SDS011;6877;51.436;6.774;2023-05-02T02:53:19;32.63;;;17.35;;
13611;SDS011;6877;51.436;6.774;2023-05-02T02:55:57;37.72;;;18.90;;
13611;SDS011;6877;51.436;6.774;2023-05-02T03:01:14;37.63;;;18.98;;
13611;SDS011;6877;51.436;6.774;2023-05-02T03:03:45;36.35;;;18.77;;
13611;SDS011;6877;51.436;6.774;2023-05-02T03:06:16;34.13;;;18.30;;
13611;SDS011;6877;51.436;6.774;2023-05-02T03:08:47;35.10;;;16.30;;
13611;SDS011;6877;51.436;6.774;2023-05-02T03:11:13;34.58;;;17.25;;
13611;SDS011;6877;51.436;6.774;2023-05-02T03:13:45;31.48;;;16.67;;
13611;SDS011;6877;51.436;6.774;2023-05-02T03:16:32;30.02;;;14.75;;
13611;SDS011;6877;51.436;6.774;2023-05-02T03:19:05;33.95;;;16.25;;
13611;SDS011;6877;51.436;6.774;2023-05-02T03:21:32;28.75;;;14.05;;
13611;SDS011;6877;51.436;6.774;2023-05-02T03:24:00;31.00;;;15.35;;
13611;SDS011;6877;51.436;6.774;2023-05-02T03:26:28;29.65;;;13.90;;
13611;SDS011;6877;51.436;6.774;2023-05-02T03:29:00;30.25;;;16.08;;
13611;SDS011;6877;51.436;6.774;2023-05-02T03:31:32;27.95;;;13.50;;
13611;SDS011;6877;51.436;6.774;2023-05-02T03:33:58;28.45;;;14.52;;
13611;SDS011;6877;51.436;6.774;2023-05-02T03:36:25;27.63;;;15.77;;
13611;SDS011;6877;51.436;6.774;2023-05-02T03:38:56;28.98;;;16.33;;
13611;SDS011;6877;51.436;6.774;2023-05-02T03:41:22;26.38;;;14.02;;
13611;SDS011;6877;51.436;6.774;2023-05-02T03:43:54;28.48;;;13.23;;
13611;SDS011;6877;51.436;6.774;2023-05-02T03:46:21;28.67;;;13.68;;
13611;SDS011;6877;51.436;6.774;2023-05-02T03:48:47;24.33;;;12.00;;
13611;SDS011;6877;51.436;6.774;2023-05-02T03:51:17;20.35;;;10.93;;
13611;SDS011;6877;51.436;6.774;2023-05-02T03:53:43;23.15;;;12.80;;
13611;SDS011;6877;51.436;6.774;2023-05-02T03:56:10;22.58;;;11.48;;
13611;SDS011;6877;51.436;6.774;2023-05-02T03:58:36;24.45;;;10.70;;
13611;SDS011;6877;51.436;6.774;2023-05-02T04:01:03;20.77;;;10.95;;
13611;SDS011;6877;51.436;6.774;2023-05-02T04:03:29;23.13;;;9.90;;
13611;SDS011;6877;51.436;6.774;2023-05-02T04:05:57;20.35;;;10.43;;
13611;SDS011;6877;51.436;6.774;2023-05-02T04:08:23;23.20;;;12.00;;
13611;SDS011;6877;51.436;6.774;2023-05-02T04:10:50;20.33;;;9.50;;
13611;SDS011;6877;51.436;6.774;2023-05-02T04:13:20;18.65;;;9.88;;
13611;SDS011;6877;51.436;6.774;2023-05-02T04:15:46;18.55;;;11.02;;
13611;SDS011;6877;51.436;6.774;2023-05-02T04:18:15;20.48;;;9.80;;
13611;SDS011;6877;51.436;6.774;2023-05-02T04:20:49;23.35;;;11.63;;
13611;SDS011;6877;51.436;6.774;2023-05-02T04:23:16;21.90;;;11.27;;
13611;SDS011;6877;51.436;6.774;2023-05-02T04:25:52;23.45;;;11.75;;
13611;SDS011;6877;51.436;6.774;2023-05-02T04:28:20;26.50;;;10.95;;
13611;SDS011;6877;51.436;6.774;2023-05-02T04:30:52;22.98;;;12.43;;
13611;SDS011;6877;51.436;6.774;2023-05-02T04:33:18;23.60;;;12.27;;
13611;SDS011;6877;51.436;6.774;2023-05-02T04:35:45;21.33;;;11.65;;
13611;SDS011;6877;51.436;6.774;2023-05-02T04:38:12;26.15;;;12.88;;
13611;SDS011;6877;51.436;6.774;2023-05-02T04:40:39;31.40;;;14.55;;
13611;SDS011;6877;51.436;6.774;2023-05-02T04:43:06;26.20;;;11.90;;
13611;SDS011;6877;51.436;6.774;2023-05-02T04:45:35;27.92;;;14.27;;
13611;SDS011;6877;51.436;6.774;2023-05-02T04:48:02;30.52;;;15.05;;
13611;SDS011;6877;51.436;6.774;2023-05-02T04:50:29;33.30;;;14.95;;
13611;SDS011;6877;51.436;6.774;2023-05-02T04:53:00;29.75;;;14.82;;
13611;SDS011;6877;51.436;6.774;2023-05-02T04:55:27;30.73;;;14.85;;
13611;SDS011;6877;51.436;6.774;2023-05-02T04:58:07;31.85;;;15.73;;
13611;SDS011;6877;51.436;6.774;2023-05-02T05:00:34;27.77;;;14.48;;
13611;SDS011;6877;51.436;6.774;2023-05-02T05:03:00;32.95;;;15.27;;
13611;SDS011;6877;51.436;6.774;2023-05-02T05:05:27;34.75;;;14.95;;
13611;SDS011;6877;51.436;6.774;2023-05-02T05:07:53;33.63;;;16.83;;
13611;SDS011;6877;51.436;6.774;2023-05-02T05:10:20;33.97;;;15.82;;
13611;SDS011;6877;51.436;6.774;2023-05-02T05:12:46;34.85;;;15.05;;
13611;SDS011;6877;51.436;6.774;2023-05-02T05:15:14;27.17;;;13.77;;
13611;SDS011;6877;51.436;6.774;2023-05-02T05:17:46;21.67;;;10.23;;
13611;SDS011;6877;51.436;6.774;2023-05-02T05:20:13;22.52;;;9.88;;
13611;SDS011;6877;51.436;6.774;2023-05-02T05:22:40;17.08;;;8.50;;
13611;SDS011;6877;51.436;6.774;2023-05-02T05:25:11;18.92;;;9.38;;
13611;SDS011;6877;51.436;6.774;2023-05-02T05:27:38;26.38;;;11.75;;
13611;SDS011;6877;51.436;6.774;2023-05-02T05:30:04;21.92;;;11.25;;
13611;SDS011;6877;51.436;6.774;2023-05-02T05:32:32;24.23;;;11.68;;
13611;SDS011;6877;51.436;6.774;2023-05-02T05:34:58;28.25;;;11.48;;
13611;SDS011;6877;51.436;6.774;2023-05-02T05:37:25;22.33;;;10.85;;
13611;SDS011;6877;51.436;6.774;2023-05-02T05:39:51;16.08;;;7.93;;
13611;SDS011;6877;51.436;6.774;2023-05-02T05:42:18;14.07;;;8.23;;
13611;SDS011;6877;51.436;6.774;2023-05-02T05:44:47;16.75;;;6.40;;
13611;SDS011;6877;51.436;6.774;2023-05-02T05:47:19;14.40;;;6.78;;
13611;SDS011;6877;51.436;6.774;2023-05-02T05:49:55;13.98;;;6.90;;
13611;SDS011;6877;51.436;6.774;2023-05-02T05:52:21;15.48;;;8.40;;
13611;SDS011;6877;51.436;6.774;2023-05-02T05:54:48;17.55;;;8.40;;
13611;SDS011;6877;51.436;6.774;2023-05-02T05:57:14;13.15;;;8.35;;
13611;SDS011;6877;51.436;6.774;2023-05-02T05:59:41;19.40;;;8.95;;
13611;SDS011;6877;51.436;6.774;2023-05-02T06:02:08;14.13;;;6.70;;
13611;SDS011;6877;51.436;6.774;2023-05-02T06:04:34;19.65;;;7.60;;
13611;SDS011;6877;51.436;6.774;2023-05-02T06:07:01;19.60;;;7.85;;
13611;SDS011;6877;51.436;6.774;2023-05-02T06:09:27;15.38;;;8.00;;
13611;SDS011;6877;51.436;6.774;2023-05-02T06:11:54;18.02;;;8.77;;
13611;SDS011;6877;51.436;6.774;2023-05-02T06:14:20;24.98;;;8.85;;
13611;SDS011;6877;51.436;6.774;2023-05-02T06:16:46;15.30;;;8.27;;
13611;SDS011;6877;51.436;6.774;2023-05-02T06:19:15;16.17;;;8.50;;
13611;SDS011;6877;51.436;6.774;2023-05-02T06:21:42;15.40;;;8.65;;
13611;SDS011;6877;51.436;6.774;2023-05-02T06:24:09;10.63;;;7.03;;
13611;SDS011;6877;51.436;6.774;2023-05-02T06:26:35;13.35;;;7.80;;
13611;SDS011;6877;51.436;6.774;2023-05-02T06:29:07;13.32;;;6.72;;
13611;SDS011;6877;51.436;6.774;2023-05-02T06:31:33;10.00;;;5.13;;
13611;SDS011;6877;51.436;6.774;2023-05-02T06:34:00;9.68;;;4.85;;
13611;SDS011;6877;51.436;6.774;2023-05-02T06:36:26;15.70;;;6.18;;
13611;SDS011;6877;51.436;6.774;2023-05-02T06:38:52;18.30;;;6.32;;
13611;SDS011;6877;51.436;6.774;2023-05-02T06:41:19;11.27;;;5.65;;
13611;SDS011;6877;51.436;6.774;2023-05-02T06:43:45;13.77;;;6.05;;
13611;SDS011;6877;51.436;6.774;2023-05-02T06:46:12;11.95;;;5.70;;
13611;SDS011;6877;51.436;6.774;2023-05-02T06:48:38;15.07;;;4.28;;
13611;SDS011;6877;51.436;6.774;2023-05-02T06:51:05;8.15;;;3.95;;
13611;SDS011;6877;51.436;6.774;2023-05-02T06:53:31;8.48;;;4.28;;
13611;SDS011;6877;51.436;6.774;2023-05-02T06:55:58;11.23;;;6.18;;
13611;SDS011;6877;51.436;6.774;2023-05-02T06:58:24;27.75;;;6.78;;
13611;SDS011;6877;51.436;6.774;2023-05-02T07:00:51;7.30;;;4.60;;
13611;SDS011;6877;51.436;6.774;2023-05-02T07:03:22;11.68;;;4.20;;
13611;SDS011;6877;51.436;6.774;2023-05-02T07:05:48;7.70;;;4.18;;
13611;SDS011;6877;51.436;6.774;2023-05-02T07:08:15;10.30;;;3.67;;
13611;SDS011;6877;51.436;6.774;2023-05-02T07:10:41;10.48;;;3.40;;
13611;SDS011;6877;51.436;6.774;2023-05-02T07:13:08;9.63;;;3.72;;
13611;SDS011;6877;51.436;6.774;2023-05-02T07:15:34;8.25;;;3.25;;
13611;SDS011;6877;51.436;6.774;2023-05-02T07:18:06;10.55;;;3.40;;
13611;SDS011;6877;51.436;6.774;2023-05-02T07:20:32;6.43;;;2.88;;
13611;SDS011;6877;51.436;6.774;2023-05-02T07:22:58;8.45;;;3.50;;
13611;SDS011;6877;51.436;6.774;2023-05-02T07:25:25;5.57;;;3.15;;
13611;SDS011;6877;51.436;6.774;2023-05-02T07:27:52;6.45;;;3.08;;
13611;SDS011;6877;51.436;6.774;2023-05-02T07:30:18;5.82;;;3.20;;
13611;SDS011;6877;51.436;6.774;2023-05-02T07:32:45;4.90;;;2.92;;
13611;SDS011;6877;51.436;6.774;2023-05-02T07:35:11;14.93;;;3.47;;
13611;SDS011;6877;51.436;6.774;2023-05-02T07:37:38;10.60;;;3.45;;
13611;SDS011;6877;51.436;6.774;2023-05-02T07:40:04;9.13;;;3.30;;
13611;SDS011;6877;51.436;6.774;2023-05-02T07:42:33;13.98;;;3.67;;
13611;SDS011;6877;51.436;6.774;2023-05-02T07:44:59;6.88;;;3.75;;
13611;SDS011;6877;51.436;6.774;2023-05-02T07:47:26;8.27;;;3.15;;
13611;SDS011;6877;51.436;6.774;2023-05-02T07:49:52;9.90;;;3.92;;
13611;SDS011;6877;51.436;6.774;2023-05-02T07:52:20;12.30;;;3.22;;
13611;SDS011;6877;51.436;6.774;2023-05-02T07:54:47;18.50;;;3.42;;
13611;SDS011;6877;51.436;6.774;2023-05-02T07:57:17;16.15;;;3.25;;
13611;SDS011;6877;51.436;6.774;2023-05-02T07:59:43;4.72;;;2.92;;
13611;SDS011;6877;51.436;6.774;2023-05-02T08:02:10;8.13;;;2.95;;
13611;SDS011;6877;51.436;6.774;2023-05-02T08:04:38;7.43;;;2.67;;
13611;SDS011;6877;51.436;6.774;2023-05-02T08:07:10;12.25;;;3.38;;
13611;SDS011;6877;51.436;6.774;2023-05-02T08:09:37;8.60;;;3.28;;
13611;SDS011;6877;51.436;6.774;2023-05-02T08:12:03;7.07;;;3.17;;
13611;SDS011;6877;51.436;6.774;2023-05-02T08:14:30;11.32;;;3.55;;
13611;SDS011;6877;51.436;6.774;2023-05-02T08:16:57;11.50;;;3.95;;
13611;SDS011;6877;51.436;6.774;2023-05-02T08:19:24;6.03;;;3.45;;
13611;SDS011;6877;51.436;6.774;2023-05-02T08:21:54;7.55;;;3.30;;
13611;SDS011;6877;51.436;6.774;2023-05-02T08:24:21;9.52;;;3.08;;
13611;SDS011;6877;51.436;6.774;2023-05-02T08:26:47;12.43;;;3.05;;
13611;SDS011;6877;51.436;6.774;2023-05-02T08:29:17;5.20;;;2.30;;
13611;SDS011;6877;51.436;6.774;2023-05-02T08:31:43;10.68;;;2.85;;
13611;SDS011;6877;51.436;6.774;2023-05-02T08:34:10;5.15;;;2.80;;
13611;SDS011;6877;51.436;6.774;2023-05-02T08:36:42;6.13;;;2.60;;
13611;SDS011;6877;51.436;6.774;2023-05-02T08:39:12;4.82;;;2.40;;
13611;SDS011;6877;51.436;6.774;2023-05-02T08:41:39;6.65;;;2.72;;
13611;SDS011;6877;51.436;6.774;2023-05-02T08:44:06;4.18;;;2.35;;
13611;SDS011;6877;51.436;6.774;2023-05-02T08:46:35;6.75;;;2.80;;
13611;SDS011;6877;51.436;6.774;2023-05-02T08:49:05;13.15;;;4.00;;
13611;SDS011;6877;51.436;6.774;2023-05-02T08:51:33;9.15;;;3.60;;
13611;SDS011;6877;51.436;6.774;2023-05-02T08:54:01;7.70;;;3.38;;
13611;SDS011;6877;51.436;6.774;2023-05-02T08:56:28;6.68;;;3.20;;
13611;SDS011;6877;51.436;6.774;2023-05-02T08:58:55;11.63;;;3.55;;
13611;SDS011;6877;51.436;6.774;2023-05-02T09:01:22;6.18;;;2.80;;
13611;SDS011;6877;51.436;6.774;2023-05-02T09:03:52;11.20;;;3.40;;
13611;SDS011;6877;51.436;6.774;2023-05-02T09:06:25;11.18;;;3.75;;
13611;SDS011;6877;51.436;6.774;2023-05-02T09:08:58;9.98;;;3.00;;
13611;SDS011;6877;51.436;6.774;2023-05-02T09:11:25;6.63;;;3.00;;
13611;SDS011;6877;51.436;6.774;2023-05-02T09:13:52;2.75;;;2.45;;
13611;SDS011;6877;51.436;6.774;2023-05-02T09:16:22;4.72;;;2.20;;
13611;SDS011;6877;51.436;6.774;2023-05-02T09:18:51;9.18;;;3.13;;
13611;SDS011;6877;51.436;6.774;2023-05-02T09:21:34;5.63;;;2.40;;
13611;SDS011;6877;51.436;6.774;2023-05-02T09:24:13;8.25;;;3.55;;
13611;SDS011;6877;51.436;6.774;2023-05-02T09:26:56;6.28;;;3.25;;
13611;SDS011;6877;51.436;6.774;2023-05-02T09:29:26;4.93;;;2.70;;
13611;SDS011;6877;51.436;6.774;2023-05-02T09:31:53;6.28;;;2.78;;
13611;SDS011;6877;51.436;6.774;2023-05-02T09:34:20;9.93;;;2.70;;
13611;SDS011;6877;51.436;6.774;2023-05-02T09:36:51;4.80;;;3.47;;
13611;SDS011;6877;51.436;6.774;2023-05-02T09:39:20;13.85;;;3.42;;
13611;SDS011;6877;51.436;6.774;2023-05-02T09:41:48;7.78;;;2.80;;
13611;SDS011;6877;51.436;6.774;2023-05-02T09:44:18;8.75;;;2.75;;
13611;SDS011;6877;51.436;6.774;2023-05-02T09:46:47;5.82;;;3.38;;
13611;SDS011;6877;51.436;6.774;2023-05-02T09:49:13;6.20;;;2.42;;
13611;SDS011;6877;51.436;6.774;2023-05-02T09:51:46;8.40;;;2.97;;
13611;SDS011;6877;51.436;6.774;2023-05-02T09:54:14;7.78;;;2.88;;
13611;SDS011;6877;51.436;6.774;2023-05-02T09:57:02;10.82;;;3.25;;
13611;SDS011;6877;51.436;6.774;2023-05-02T09:59:28;10.88;;;4.22;;
13611;SDS011;6877;51.436;6.774;2023-05-02T10:01:55;6.95;;;3.58;;
13611;SDS011;6877;51.436;6.774;2023-05-02T10:04:23;9.23;;;3.38;;
13611;SDS011;6877;51.436;6.774;2023-05-02T10:06:51;7.38;;;4.00;;
13611;SDS011;6877;51.436;6.774;2023-05-02T10:09:19;11.73;;;4.05;;
13611;SDS011;6877;51.436;6.774;2023-05-02T10:11:48;11.77;;;3.85;;
13611;SDS011;6877;51.436;6.774;2023-05-02T10:14:21;9.32;;;3.75;;
13611;SDS011;6877;51.436;6.774;2023-05-02T10:19:37;10.85;;;3.75;;
13611;SDS011;6877;51.436;6.774;2023-05-02T10:22:10;18.60;;;4.60;;
13611;SDS011;6877;51.436;6.774;2023-05-02T10:24:38;7.43;;;4.03;;
13611;SDS011;6877;51.436;6.774;2023-05-02T10:27:06;16.67;;;4.40;;
13611;SDS011;6877;51.436;6.774;2023-05-02T10:29:33;11.88;;;3.75;;
13611;SDS011;6877;51.436;6.774;2023-05-02T10:32:00;11.98;;;4.13;;
13611;SDS011;6877;51.436;6.774;2023-05-02T10:34:30;7.65;;;3.47;;
13611;SDS011;6877;51.436;6.774;2023-05-02T10:36:58;7.35;;;3.42;;
13611;SDS011;6877;51.436;6.774;2023-05-02T10:39:32;13.95;;;4.25;;
13611;SDS011;6877;51.436;6.774;2023-05-02T10:41:59;11.05;;;4.28;;
13611;SDS011;6877;51.436;6.774;2023-05-02T10:44:35;8.38;;;4.13;;
13611;SDS011;6877;51.436;6.774;2023-05-02T10:47:21;8.82;;;3.90;;
13611;SDS011;6877;51.436;6.774;2023-05-02T10:49:58;13.60;;;3.88;;
13611;SDS011;6877;51.436;6.774;2023-05-02T10:52:33;18.63;;;4.13;;
13611;SDS011;6877;51.436;6.774;2023-05-02T10:55:13;10.25;;;3.33;;
13611;SDS011;6877;51.436;6.774;2023-05-02T11:02:52;12.55;;;4.75;;
13611;SDS011;6877;51.436;6.774;2023-05-02T11:05:20;10.73;;;3.15;;
13611;SDS011;6877;51.436;6.774;2023-05-02T11:07:47;6.65;;;3.03;;
13611;SDS011;6877;51.436;6.774;2023-05-02T11:12:46;11.23;;;3.20;;
13611;SDS011;6877;51.436;6.774;2023-05-02T11:15:14;8.73;;;3.30;;
13611;SDS011;6877;51.436;6.774;2023-05-02T11:20:41;9.70;;;3.45;;
13611;SDS011;6877;51.436;6.774;2023-05-02T11:25:48;6.15;;;3.05;;
13611;SDS011;6877;51.436;6.774;2023-05-02T11:31:09;8.63;;;3.22;;
13611;SDS011;6877;51.436;6.774;2023-05-02T11:33:56;7.85;;;2.85;;
13611;SDS011;6877;51.436;6.774;2023-05-02T11:36:32;12.27;;;3.17;;
13611;SDS011;6877;51.436;6.774;2023-05-02T11:39:00;7.80;;;3.70;;
13611;SDS011;6877;51.436;6.774;2023-05-02T11:41:40;10.20;;;3.45;;
13611;SDS011;6877;51.436;6.774;2023-05-02T11:44:07;11.52;;;3.63;;
13611;SDS011;6877;51.436;6.774;2023-05-02T11:46:39;10.07;;;3.05;;
13611;SDS011;6877;51.436;6.774;2023-05-02T11:49:06;8.75;;;2.90;;
13611;SDS011;6877;51.436;6.774;2023-05-02T11:51:33;4.82;;;3.38;;
13611;SDS011;6877;51.436;6.774;2023-05-02T11:54:00;7.15;;;3.30;;
13611;SDS011;6877;51.436;6.774;2023-05-02T11:56:27;4.90;;;2.75;;
13611;SDS011;6877;51.436;6.774;2023-05-02T11:58:57;8.13;;;2.78;;
13611;SDS011;6877;51.436;6.774;2023-05-02T12:01:25;5.57;;;2.88;;
13611;SDS011;6877;51.436;6.774;2023-05-02T12:06:32;7.60;;;2.35;;
13611;SDS011;6877;51.436;6.774;2023-05-02T12:09:06;5.35;;;2.88;;
13611;SDS011;6877;51.436;6.774;2023-05-02T12:11:39;6.47;;;3.38;;
13611;SDS011;6877;51.436;6.774;2023-05-02T12:14:06;6.95;;;3.20;;
13611;SDS011;6877;51.436;6.774;2023-05-02T12:16:37;8.85;;;3.45;;
13611;SDS011;6877;51.436;6.774;2023-05-02T12:19:04;9.63;;;3.30;;
13611;SDS011;6877;51.436;6.774;2023-05-02T12:21:30;7.55;;;3.50;;
13611;SDS011;6877;51.436;6.774;2023-05-02T12:23:59;20.80;;;4.50;;
13611;SDS011;6877;51.436;6.774;2023-05-02T12:26:26;10.85;;;3.90;;
13611;SDS011;6877;51.436;6.774;2023-05-02T12:28:57;9.82;;;3.45;;
13611;SDS011;6877;51.436;6.774;2023-05-02T12:31:24;5.13;;;3.70;;
13611;SDS011;6877;51.436;6.774;2023-05-02T12:33:58;6.35;;;3.28;;
13611;SDS011;6877;51.436;6.774;2023-05-02T12:36:25;5.15;;;3.38;;
13611;SDS011;6877;51.436;6.774;2023-05-02T12:38:54;7.25;;;3.55;;
13611;SDS011;6877;51.436;6.774;2023-05-02T12:44:04;12.70;;;2.85;;
13611;SDS011;6877;51.436;6.774;2023-05-02T12:46:32;12.90;;;3.45;;
13611;SDS011;6877;51.436;6.774;2023-05-02T12:51:34;9.57;;;3.30;;
13611;SDS011;6877;51.436;6.774;2023-05-02T12:54:01;6.13;;;3.60;;
13611;SDS011;6877;51.436;6.774;2023-05-02T12:56:28;4.30;;;3.40;;
13611;SDS011;6877;51.436;6.774;2023-05-02T12:58:57;6.40;;;3.22;;
13611;SDS011;6877;51.436;6.774;2023-05-02T13:01:31;9.20;;;4.35;;
13611;SDS011;6877;51.436;6.774;2023-05-02T13:03:58;13.48;;;3.95;;
13611;SDS011;6877;51.436;6.774;2023-05-02T13:06:25;11.73;;;4.97;;
13611;SDS011;6877;51.436;6.774;2023-05-02T13:08:51;10.55;;;4.25;;
13611;SDS011;6877;51.436;6.774;2023-05-02T13:11:21;11.82;;;5.47;;
13611;SDS011;6877;51.436;6.774;2023-05-02T13:13:47;11.77;;;4.85;;
13611;SDS011;6877;51.436;6.774;2023-05-02T13:16:14;12.38;;;5.38;;
13611;SDS011;6877;51.436;6.774;2023-05-02T13:18:40;12.02;;;4.88;;
13611;SDS011;6877;51.436;6.774;2023-05-02T13:21:07;9.35;;;4.25;;
13611;SDS011;6877;51.436;6.774;2023-05-02T13:23:33;10.20;;;3.83;;
13611;SDS011;6877;51.436;6.774;2023-05-02T13:26:00;7.40;;;3.70;;
13611;SDS011;6877;51.436;6.774;2023-05-02T13:28:31;5.57;;;3.80;;
13611;SDS011;6877;51.436;6.774;2023-05-02T13:30:58;9.30;;;3.88;;
13611;SDS011;6877;51.436;6.774;2023-05-02T13:33:25;7.20;;;3.67;;
13611;SDS011;6877;51.436;6.774;2023-05-02T13:35:51;14.35;;;4.50;;
13611;SDS011;6877;51.436;6.774;2023-05-02T13:38:21;8.68;;;4.20;;
13611;SDS011;6877;51.436;6.774;2023-05-02T13:40:52;10.35;;;4.63;;
13611;SDS011;6877;51.436;6.774;2023-05-02T13:43:19;9.30;;;4.47;;
13611;SDS011;6877;51.436;6.774;2023-05-02T13:45:46;10.30;;;4.95;;
13611;SDS011;6877;51.436;6.774;2023-05-02T13:48:18;7.30;;;4.55;;
13611;SDS011;6877;51.436;6.774;2023-05-02T13:50:45;11.63;;;4.45;;
13611;SDS011;6877;51.436;6.774;2023-05-02T13:53:12;11.00;;;4.25;;
13611;SDS011;6877;51.436;6.774;2023-05-02T13:55:38;7.55;;;4.07;;
13611;SDS011;6877;51.436;6.774;2023-05-02T13:58:04;9.85;;;5.10;;
13611;SDS011;6877;51.436;6.774;2023-05-02T14:00:31;8.50;;;4.63;;
13611;SDS011;6877;51.436;6.774;2023-05-02T14:02:58;9.35;;;4.05;;
13611;SDS011;6877;51.436;6.774;2023-05-02T14:05:24;7.05;;;3.80;;
13611;SDS011;6877;51.436;6.774;2023-05-02T14:07:51;9.13;;;4.55;;
13611;SDS011;6877;51.436;6.774;2023-05-02T14:10:17;13.00;;;4.90;;
13611;SDS011;6877;51.436;6.774;2023-05-02T14:12:46;9.68;;;4.80;;
13611;SDS011;6877;51.436;6.774;2023-05-02T14:15:15;8.60;;;4.38;;
13611;SDS011;6877;51.436;6.774;2023-05-02T14:17:42;15.35;;;4.95;;
13611;SDS011;6877;51.436;6.774;2023-05-02T14:20:09;6.75;;;4.30;;
13611;SDS011;6877;51.436;6.774;2023-05-02T14:22:36;8.52;;;4.80;;
13611;SDS011;6877;51.436;6.774;2023-05-02T14:25:02;9.25;;;4.15;;
13611;SDS011;6877;51.436;6.774;2023-05-02T14:27:29;11.10;;;4.43;;
13611;SDS011;6877;51.436;6.774;2023-05-02T14:29:56;8.77;;;4.25;;
13611;SDS011;6877;51.436;6.774;2023-05-02T14:32:22;12.32;;;4.20;;
13611;SDS011;6877;51.436;6.774;2023-05-02T14:34:49;11.48;;;5.10;;
13611;SDS011;6877;51.436;6.774;2023-05-02T14:37:15;16.98;;;5.18;;
13611;SDS011;6877;51.436;6.774;2023-05-02T14:39:42;10.38;;;5.28;;
13611;SDS011;6877;51.436;6.774;2023-05-02T14:42:10;11.98;;;5.35;;
13611;SDS011;6877;51.436;6.774;2023-05-02T14:44:37;10.63;;;4.68;;
13611;SDS011;6877;51.436;6.774;2023-05-02T14:47:03;7.97;;;4.18;;
13611;SDS011;6877;51.436;6.774;2023-05-02T14:49:30;7.50;;;4.82;;
13611;SDS011;6877;51.436;6.774;2023-05-02T14:51:56;9.60;;;4.40;;
13611;SDS011;6877;51.436;6.774;2023-05-02T14:54:26;8.20;;;4.57;;
13611;SDS011;6877;51.436;6.774;2023-05-02T14:56:54;9.85;;;5.20;;
13611;SDS011;6877;51.436;6.774;2023-05-02T14:59:21;15.60;;;4.88;;
13611;SDS011;6877;51.436;6.774;2023-05-02T15:01:50;12.65;;;5.60;;
13611;SDS011;6877;51.436;6.774;2023-05-02T15:04:17;10.43;;;4.68;;
13611;SDS011;6877;51.436;6.774;2023-05-02T15:06:44;8.57;;;4.88;;
13611;SDS011;6877;51.436;6.774;2023-05-02T15:09:13;9.63;;;5.20;;
13611;SDS011;6877;51.436;6.774;2023-05-02T15:11:39;10.90;;;5.22;;
13611;SDS011;6877;51.436;6.774;2023-05-02T15:14:11;13.95;;;4.90;;
13611;SDS011;6877;51.436;6.774;2023-05-02T15:16:37;20.67;;;4.45;;
13611;SDS011;6877;51.436;6.774;2023-05-02T15:19:04;9.23;;;4.60;;
13611;SDS011;6877;51.436;6.774;2023-05-02T15:21:31;14.48;;;5.45;;
13611;SDS011;6877;51.436;6.774;2023-05-02T15:23:57;15.02;;;5.65;;
13611;SDS011;6877;51.436;6.774;2023-05-02T15:26:24;7.97;;;4.40;;
13611;SDS011;6877;51.436;6.774;2023-05-02T15:28:56;16.90;;;4.50;;
13611;SDS011;6877;51.436;6.774;2023-05-02T15:31:27;9.55;;;5.75;;
13611;SDS011;6877;51.436;6.774;2023-05-02T15:33:54;11.27;;;5.28;;
13611;SDS011;6877;51.436;6.774;2023-05-02T15:36:23;8.55;;;4.68;;
13611;SDS011;6877;51.436;6.774;2023-05-02T15:38:54;12.85;;;4.80;;
13611;SDS011;6877;51.436;6.774;2023-05-02T15:41:21;10.15;;;4.28;;
13611;SDS011;6877;51.436;6.774;2023-05-02T15:43:49;11.35;;;5.93;;
13611;SDS011;6877;51.436;6.774;2023-05-02T15:46:16;7.93;;;5.25;;